Arleta, California
Current Conditions -  °F | °C
As of 8:53 AM on Friday 31 Oct 2014 (Local Time) from KBUR Reporting Station
Overcast Overcast  
Wind Chill: 63°   Ceiling: 2000
Heat Index: 63°   Visibility: 10mi
Dew Point: 55°   Wind: 0mph
Humidity: 75%   Direction: NA
Pressure: 29.98"   Gusts: NA
Location:  34.2574°N, 118.255°W
Report Text: KBUR 311553Z 00000KT 10SM BKN020 OVC029 17/13 A2998 RMK AO2 SLP141 T01720128
Loading
Personal Weather Stations






























Interactive Weather Map New forecast layout! Learn more

10-Day Weather Forecast

Advertisements
Track Severe Weather on mobile